sensor_id;sensor_type;location;lat;lon;timestamp;pressure;altitude;pressure_sealevel;temperature;humidity
41712;BME280;27399;51.516;13.670;2023-06-22T00:02:13;100761.34;;;22.96;82.34
41712;BME280;27399;51.516;13.670;2023-06-22T00:04:40;100762.47;;;22.92;82.17
41712;BME280;27399;51.516;13.670;2023-06-22T00:07:05;100763.69;;;22.86;82.43
41712;BME280;27399;51.516;13.670;2023-06-22T00:09:31;100770.06;;;22.85;82.48
41712;BME280;27399;51.516;13.670;2023-06-22T00:11:58;100768.47;;;22.81;82.52
41712;BME280;27399;51.516;13.670;2023-06-22T00:14:23;100760.13;;;22.68;82.97
41712;BME280;27399;51.516;13.670;2023-06-22T00:16:49;100771.38;;;22.78;82.69
41712;BME280;27399;51.516;13.670;2023-06-22T00:19:21;100776.44;;;22.68;83.36
41712;BME280;27399;51.516;13.670;2023-06-22T00:21:47;100777.78;;;22.59;83.75
41712;BME280;27399;51.516;13.670;2023-06-22T00:24:19;100776.06;;;22.58;83.61
41712;BME280;27399;51.516;13.670;2023-06-22T00:26:45;100781.09;;;22.49;83.77
41712;BME280;27399;51.516;13.670;2023-06-22T00:29:10;100780.75;;;22.55;83.52
41712;BME280;27399;51.516;13.670;2023-06-22T00:31:36;100780.75;;;22.37;83.78
41712;BME280;27399;51.516;13.670;2023-06-22T00:34:02;100779.31;;;22.48;83.73
41712;BME280;27399;51.516;13.670;2023-06-22T00:36:28;100775.69;;;22.29;83.92
41712;BME280;27399;51.516;13.670;2023-06-22T00:38:54;100786.66;;;22.28;84.54
41712;BME280;27399;51.516;13.670;2023-06-22T00:41:19;100791.13;;;22.29;85.61
41712;BME280;27399;51.516;13.670;2023-06-22T00:43:45;100789.94;;;22.35;86.86
41712;BME280;27399;51.516;13.670;2023-06-22T00:46:11;100792.41;;;22.39;85.93
41712;BME280;27399;51.516;13.670;2023-06-22T00:48:38;100801.53;;;22.38;85.61
41712;BME280;27399;51.516;13.670;2023-06-22T00:51:05;100801.66;;;22.35;85.24
41712;BME280;27399;51.516;13.670;2023-06-22T00:53:31;100795.06;;;22.41;84.24
41712;BME280;27399;51.516;13.670;2023-06-22T00:56:00;100785.69;;;22.29;84.70
41712;BME280;27399;51.516;13.670;2023-06-22T00:58:28;100799.75;;;22.37;84.98
41712;BME280;27399;51.516;13.670;2023-06-22T01:00:55;100800.50;;;22.41;84.52
41712;BME280;27399;51.516;13.670;2023-06-22T01:03:21;100803.94;;;22.44;84.09
41712;BME280;27399;51.516;13.670;2023-06-22T01:05:48;100801.03;;;22.30;84.47
41712;BME280;27399;51.516;13.670;2023-06-22T01:08:37;100799.91;;;22.17;84.83
41712;BME280;27399;51.516;13.670;2023-06-22T01:11:21;100805.56;;;22.12;85.46
41712;BME280;27399;51.516;13.670;2023-06-22T01:14:10;100792.56;;;22.19;85.11
41712;BME280;27399;51.516;13.670;2023-06-22T01:16:41;100791.66;;;22.18;85.40
41712;BME280;27399;51.516;13.670;2023-06-22T01:19:46;100792.31;;;22.23;84.73
41712;BME280;27399;51.516;13.670;2023-06-22T01:22:16;100803.28;;;22.22;84.78
41712;BME280;27399;51.516;13.670;2023-06-22T01:30:13;100793.44;;;22.02;86.02
41712;BME280;27399;51.516;13.670;2023-06-22T01:32:43;100795.19;;;22.03;86.72
41712;BME280;27399;51.516;13.670;2023-06-22T01:35:10;100800.38;;;21.90;86.96
41712;BME280;27399;51.516;13.670;2023-06-22T01:37:37;100803.38;;;22.01;86.68
41712;BME280;27399;51.516;13.670;2023-06-22T01:40:05;100800.19;;;21.93;86.76
41712;BME280;27399;51.516;13.670;2023-06-22T01:42:32;100789.94;;;21.80;86.70
41712;BME280;27399;51.516;13.670;2023-06-22T01:44:58;100792.00;;;21.94;86.60
41712;BME280;27399;51.516;13.670;2023-06-22T01:47:25;100771.44;;;21.89;86.15
41712;BME280;27399;51.516;13.670;2023-06-22T01:49:51;100783.59;;;21.99;85.96
41712;BME280;27399;51.516;13.670;2023-06-22T01:52:18;100792.03;;;21.93;85.95
41712;BME280;27399;51.516;13.670;2023-06-22T01:54:43;100763.38;;;21.87;85.53
41712;BME280;27399;51.516;13.670;2023-06-22T01:57:09;100790.28;;;21.92;85.79
41712;BME280;27399;51.516;13.670;2023-06-22T02:02:24;100784.84;;;21.92;84.90
41712;BME280;27399;51.516;13.670;2023-06-22T02:04:58;100797.22;;;21.80;85.35
41712;BME280;27399;51.516;13.670;2023-06-22T02:07:31;100801.13;;;21.74;86.05
41712;BME280;27399;51.516;13.670;2023-06-22T02:09:58;100802.16;;;21.72;86.05
41712;BME280;27399;51.516;13.670;2023-06-22T02:12:26;100804.31;;;21.82;85.94
41712;BME280;27399;51.516;13.670;2023-06-22T02:14:54;100803.00;;;21.72;86.37
41712;BME280;27399;51.516;13.670;2023-06-22T02:17:20;100805.28;;;21.81;86.06
41712;BME280;27399;51.516;13.670;2023-06-22T02:19:46;100803.59;;;21.79;85.74
41712;BME280;27399;51.516;13.670;2023-06-22T02:22:12;100784.81;;;21.74;85.54
41712;BME280;27399;51.516;13.670;2023-06-22T02:24:40;100808.75;;;21.85;85.59
41712;BME280;27399;51.516;13.670;2023-06-22T02:27:06;100754.19;;;21.34;86.10
41712;BME280;27399;51.516;13.670;2023-06-22T02:29:32;100821.22;;;21.70;86.25
41712;BME280;27399;51.516;13.670;2023-06-22T02:31:59;100824.97;;;21.67;85.99
41712;BME280;27399;51.516;13.670;2023-06-22T02:34:24;100825.78;;;21.70;86.12
41712;BME280;27399;51.516;13.670;2023-06-22T02:36:51;100823.19;;;21.66;86.25
41712;BME280;27399;51.516;13.670;2023-06-22T02:39:20;100817.41;;;21.74;85.85
41712;BME280;27399;51.516;13.670;2023-06-22T02:41:52;100819.06;;;21.77;86.12
41712;BME280;27399;51.516;13.670;2023-06-22T02:44:20;100822.00;;;21.72;85.63
41712;BME280;27399;51.516;13.670;2023-06-22T02:46:47;100811.53;;;21.64;86.25
41712;BME280;27399;51.516;13.670;2023-06-22T02:49:13;100809.03;;;21.60;85.96
41712;BME280;27399;51.516;13.670;2023-06-22T02:51:41;100813.28;;;21.46;86.73
41712;BME280;27399;51.516;13.670;2023-06-22T02:54:07;100820.47;;;21.47;86.68
41712;BME280;27399;51.516;13.670;2023-06-22T02:56:33;100824.16;;;21.46;86.80
41712;BME280;27399;51.516;13.670;2023-06-22T02:58:59;100815.47;;;21.38;86.93
41712;BME280;27399;51.516;13.670;2023-06-22T03:01:29;100814.97;;;21.49;86.63
41712;BME280;27399;51.516;13.670;2023-06-22T03:03:56;100815.47;;;21.38;86.92
41712;BME280;27399;51.516;13.670;2023-06-22T03:06:22;100812.47;;;21.44;87.26
41712;BME280;27399;51.516;13.670;2023-06-22T03:09:00;100797.22;;;21.61;86.50
41712;BME280;27399;51.516;13.670;2023-06-22T03:11:26;100809.63;;;21.47;86.53
41712;BME280;27399;51.516;13.670;2023-06-22T03:13:52;100810.50;;;21.48;87.02
41712;BME280;27399;51.516;13.670;2023-06-22T03:16:19;100804.47;;;21.41;87.28
41712;BME280;27399;51.516;13.670;2023-06-22T03:18:45;100801.25;;;21.52;86.63
41712;BME280;27399;51.516;13.670;2023-06-22T03:21:11;100793.19;;;21.50;86.77
41712;BME280;27399;51.516;13.670;2023-06-22T03:23:37;100789.00;;;21.43;87.01
41712;BME280;27399;51.516;13.670;2023-06-22T03:26:03;100784.53;;;21.42;86.71
41712;BME280;27399;51.516;13.670;2023-06-22T03:28:29;100793.34;;;21.47;86.89
41712;BME280;27399;51.516;13.670;2023-06-22T03:30:57;100800.81;;;21.42;87.38
41712;BME280;27399;51.516;13.670;2023-06-22T03:33:24;100793.84;;;21.56;86.21
41712;BME280;27399;51.516;13.670;2023-06-22T03:35:50;100791.13;;;21.56;86.03
41712;BME280;27399;51.516;13.670;2023-06-22T03:38:18;100785.72;;;21.56;86.45
41712;BME280;27399;51.516;13.670;2023-06-22T03:40:44;100782.28;;;21.52;86.55
41712;BME280;27399;51.516;13.670;2023-06-22T03:43:10;100777.06;;;21.47;86.85
41712;BME280;27399;51.516;13.670;2023-06-22T03:45:36;100786.28;;;21.43;86.98
41712;BME280;27399;51.516;13.670;2023-06-22T03:48:02;100794.56;;;21.40;87.29
41712;BME280;27399;51.516;13.670;2023-06-22T03:50:28;100788.19;;;21.41;87.30
41712;BME280;27399;51.516;13.670;2023-06-22T03:52:55;100786.44;;;21.40;87.65
41712;BME280;27399;51.516;13.670;2023-06-22T03:55:21;100788.06;;;21.44;87.38
41712;BME280;27399;51.516;13.670;2023-06-22T03:57:47;100781.81;;;21.42;87.57
41712;BME280;27399;51.516;13.670;2023-06-22T04:00:14;100787.38;;;21.39;87.92
41712;BME280;27399;51.516;13.670;2023-06-22T04:02:41;100798.78;;;21.47;87.71
41712;BME280;27399;51.516;13.670;2023-06-22T04:05:09;100792.38;;;21.48;88.22
41712;BME280;27399;51.516;13.670;2023-06-22T04:07:35;100790.47;;;21.50;88.05
41712;BME280;27399;51.516;13.670;2023-06-22T04:10:05;100797.38;;;21.58;87.80
41712;BME280;27399;51.516;13.670;2023-06-22T04:12:31;100792.22;;;21.51;87.90
41712;BME280;27399;51.516;13.670;2023-06-22T04:14:57;100795.59;;;21.57;88.29
41712;BME280;27399;51.516;13.670;2023-06-22T04:17:23;100795.84;;;21.52;88.43
41712;BME280;27399;51.516;13.670;2023-06-22T04:19:51;100797.19;;;21.62;87.97
41712;BME280;27399;51.516;13.670;2023-06-22T04:22:17;100798.03;;;21.63;88.49
41712;BME280;27399;51.516;13.670;2023-06-22T04:24:43;100805.78;;;21.51;88.97
41712;BME280;27399;51.516;13.670;2023-06-22T04:27:09;100806.31;;;21.60;89.03
41712;BME280;27399;51.516;13.670;2023-06-22T04:29:35;100812.09;;;21.71;88.42
41712;BME280;27399;51.516;13.670;2023-06-22T04:32:01;100828.84;;;21.81;88.60
41712;BME280;27399;51.516;13.670;2023-06-22T04:34:31;100819.50;;;21.87;88.80
41712;BME280;27399;51.516;13.670;2023-06-22T04:36:57;100822.09;;;21.90;88.90
41712;BME280;27399;51.516;13.670;2023-06-22T04:39:23;100827.19;;;21.96;88.58
41712;BME280;27399;51.516;13.670;2023-06-22T04:41:49;100822.50;;;22.00;88.98
41712;BME280;27399;51.516;13.670;2023-06-22T04:44:18;100822.19;;;22.06;89.50
41712;BME280;27399;51.516;13.670;2023-06-22T04:46:50;100834.78;;;22.07;89.22
41712;BME280;27399;51.516;13.670;2023-06-22T04:49:20;100833.78;;;22.09;90.17
41712;BME280;27399;51.516;13.670;2023-06-22T04:51:47;100824.13;;;22.21;89.92
41712;BME280;27399;51.516;13.670;2023-06-22T04:54:14;100838.91;;;22.33;89.75
41712;BME280;27399;51.516;13.670;2023-06-22T04:56:39;100839.78;;;22.34;89.80
41712;BME280;27399;51.516;13.670;2023-06-22T04:59:06;100844.91;;;22.40;89.79
41712;BME280;27399;51.516;13.670;2023-06-22T05:01:33;100844.06;;;22.57;88.82
41712;BME280;27399;51.516;13.670;2023-06-22T05:04:00;100845.81;;;22.58;89.59
41712;BME280;27399;51.516;13.670;2023-06-22T05:06:28;100862.38;;;22.71;89.88
41712;BME280;27399;51.516;13.670;2023-06-22T05:08:55;100858.84;;;22.86;89.81
41712;BME280;27399;51.516;13.670;2023-06-22T05:11:28;100862.28;;;22.90;88.46
41712;BME280;27399;51.516;13.670;2023-06-22T05:13:54;100861.63;;;23.02;90.31
41712;BME280;27399;51.516;13.670;2023-06-22T05:16:22;100841.28;;;23.10;88.69
41712;BME280;27399;51.516;13.670;2023-06-22T05:18:52;100853.75;;;23.14;89.95
41712;BME280;27399;51.516;13.670;2023-06-22T05:21:25;100863.13;;;23.26;89.41
41712;BME280;27399;51.516;13.670;2023-06-22T05:23:52;100858.94;;;23.36;89.25
41712;BME280;27399;51.516;13.670;2023-06-22T05:26:20;100866.00;;;23.56;87.77
41712;BME280;27399;51.516;13.670;2023-06-22T05:28:46;100875.50;;;23.65;88.73
41712;BME280;27399;51.516;13.670;2023-06-22T05:31:14;100878.22;;;23.81;86.84
41712;BME280;27399;51.516;13.670;2023-06-22T05:33:43;100873.22;;;23.89;86.75
41712;BME280;27399;51.516;13.670;2023-06-22T05:36:09;100876.91;;;23.88;87.45
41712;BME280;27399;51.516;13.670;2023-06-22T05:38:36;100875.97;;;24.05;85.84
41712;BME280;27399;51.516;13.670;2023-06-22T05:41:02;100876.22;;;24.01;86.31
41712;BME280;27399;51.516;13.670;2023-06-22T05:43:28;100875.69;;;24.10;83.51
41712;BME280;27399;51.516;13.670;2023-06-22T05:45:54;100878.75;;;24.20;84.30
41712;BME280;27399;51.516;13.670;2023-06-22T05:48:20;100881.81;;;24.29;84.65
41712;BME280;27399;51.516;13.670;2023-06-22T05:50:45;100882.69;;;24.30;85.81
41712;BME280;27399;51.516;13.670;2023-06-22T05:53:11;100880.41;;;24.38;83.24
41712;BME280;27399;51.516;13.670;2023-06-22T05:55:37;100884.41;;;24.47;82.20
41712;BME280;27399;51.516;13.670;2023-06-22T05:58:02;100876.44;;;24.44;84.81
41712;BME280;27399;51.516;13.670;2023-06-22T06:00:31;100865.03;;;24.52;84.78
41712;BME280;27399;51.516;13.670;2023-06-22T06:02:57;100858.56;;;24.54;85.12
41712;BME280;27399;51.516;13.670;2023-06-22T06:05:31;100848.00;;;24.48;84.79
41712;BME280;27399;51.516;13.670;2023-06-22T06:07:58;100840.72;;;24.49;84.91
41712;BME280;27399;51.516;13.670;2023-06-22T06:10:23;100844.19;;;24.51;85.36
41712;BME280;27399;51.516;13.670;2023-06-22T06:12:49;100852.72;;;24.60;84.80
41712;BME280;27399;51.516;13.670;2023-06-22T06:15:15;100857.75;;;24.68;83.61
41712;BME280;27399;51.516;13.670;2023-06-22T06:17:53;100852.81;;;24.59;82.96
41712;BME280;27399;51.516;13.670;2023-06-22T06:20:21;100857.63;;;24.70;82.89
41712;BME280;27399;51.516;13.670;2023-06-22T06:22:47;100838.19;;;24.76;82.80
41712;BME280;27399;51.516;13.670;2023-06-22T06:25:13;100835.25;;;24.79;84.10
41712;BME280;27399;51.516;13.670;2023-06-22T06:27:43;100823.19;;;24.83;84.69
41712;BME280;27399;51.516;13.670;2023-06-22T06:30:13;100817.34;;;24.89;85.15
41712;BME280;27399;51.516;13.670;2023-06-22T06:32:39;100817.94;;;24.95;86.25
41712;BME280;27399;51.516;13.670;2023-06-22T06:35:06;100813.06;;;25.14;84.24
41712;BME280;27399;51.516;13.670;2023-06-22T06:37:37;100811.59;;;25.23;83.78
41712;BME280;27399;51.516;13.670;2023-06-22T06:40:04;100802.63;;;25.21;81.97
41712;BME280;27399;51.516;13.670;2023-06-22T06:42:40;100802.34;;;25.40;81.32
41712;BME280;27399;51.516;13.670;2023-06-22T06:45:10;100802.94;;;25.45;80.18
41712;BME280;27399;51.516;13.670;2023-06-22T06:47:36;100782.44;;;25.52;79.24
41712;BME280;27399;51.516;13.670;2023-06-22T06:50:04;100770.53;;;25.53;81.01
41712;BME280;27399;51.516;13.670;2023-06-22T06:52:30;100769.56;;;25.55;80.63
41712;BME280;27399;51.516;13.670;2023-06-22T06:54:55;100767.00;;;25.66;80.83
41712;BME280;27399;51.516;13.670;2023-06-22T06:57:21;100773.47;;;25.78;78.18
41712;BME280;27399;51.516;13.670;2023-06-22T06:59:48;100774.84;;;25.85;82.37
41712;BME280;27399;51.516;13.670;2023-06-22T07:02:15;100759.78;;;25.92;79.76
41712;BME280;27399;51.516;13.670;2023-06-22T07:04:41;100774.56;;;25.75;76.34
41712;BME280;27399;51.516;13.670;2023-06-22T07:07:07;100783.13;;;25.83;77.16
41712;BME280;27399;51.516;13.670;2023-06-22T07:09:32;100780.06;;;25.88;76.17
41712;BME280;27399;51.516;13.670;2023-06-22T07:11:58;100773.09;;;26.11;76.16
41712;BME280;27399;51.516;13.670;2023-06-22T07:14:24;100773.88;;;26.13;77.75
41712;BME280;27399;51.516;13.670;2023-06-22T07:16:49;100780.00;;;26.30;76.67
41712;BME280;27399;51.516;13.670;2023-06-22T07:19:15;100771.59;;;26.33;75.63
41712;BME280;27399;51.516;13.670;2023-06-22T07:21:41;100783.97;;;26.39;74.77
41712;BME280;27399;51.516;13.670;2023-06-22T07:24:07;100772.59;;;26.45;74.06
41712;BME280;27399;51.516;13.670;2023-06-22T07:26:33;100771.53;;;26.73;74.02
41712;BME280;27399;51.516;13.670;2023-06-22T07:28:59;100773.63;;;26.83;73.12
41712;BME280;27399;51.516;13.670;2023-06-22T07:31:25;100785.88;;;27.16;74.08
41712;BME280;27399;51.516;13.670;2023-06-22T07:33:51;100789.94;;;26.84;71.72
41712;BME280;27399;51.516;13.670;2023-06-22T07:36:17;100786.00;;;26.88;70.96
41712;BME280;27399;51.516;13.670;2023-06-22T07:38:43;100795.16;;;27.26;73.05
41712;BME280;27399;51.516;13.670;2023-06-22T07:41:09;100805.91;;;27.29;71.12
41712;BME280;27399;51.516;13.670;2023-06-22T07:43:35;100800.81;;;27.36;72.71
41712;BME280;27399;51.516;13.670;2023-06-22T07:46:05;100797.56;;;27.31;72.22
41712;BME280;27399;51.516;13.670;2023-06-22T07:48:31;100800.06;;;27.47;71.23
41712;BME280;27399;51.516;13.670;2023-06-22T07:50:57;100787.03;;;27.50;72.35
41712;BME280;27399;51.516;13.670;2023-06-22T07:53:23;100798.50;;;27.43;71.38
41712;BME280;27399;51.516;13.670;2023-06-22T07:55:49;100783.31;;;27.76;71.64
41712;BME280;27399;51.516;13.670;2023-06-22T07:58:15;100783.53;;;27.35;71.26
41712;BME280;27399;51.516;13.670;2023-06-22T08:00:41;100785.19;;;27.75;71.24
41712;BME280;27399;51.516;13.670;2023-06-22T08:03:06;100780.56;;;28.00;73.18
41712;BME280;27399;51.516;13.670;2023-06-22T08:05:32;100782.94;;;27.93;71.17
41712;BME280;27399;51.516;13.670;2023-06-22T08:07:58;100780.97;;;28.07;71.37
41712;BME280;27399;51.516;13.670;2023-06-22T08:10:24;100773.06;;;28.15;71.79
41712;BME280;27399;51.516;13.670;2023-06-22T08:12:50;100778.13;;;28.33;70.48
41712;BME280;27399;51.516;13.670;2023-06-22T08:15:17;100772.72;;;28.20;71.57
41712;BME280;27399;51.516;13.670;2023-06-22T08:17:44;100784.03;;;28.15;70.15
41712;BME280;27399;51.516;13.670;2023-06-22T08:20:10;100781.53;;;28.48;70.43
41712;BME280;27399;51.516;13.670;2023-06-22T08:22:39;100775.81;;;28.51;69.08
41712;BME280;27399;51.516;13.670;2023-06-22T08:25:05;100768.81;;;28.58;69.81
41712;BME280;27399;51.516;13.670;2023-06-22T08:27:31;100772.25;;;28.84;67.79
41712;BME280;27399;51.516;13.670;2023-06-22T08:30:00;100770.38;;;28.85;68.47
41712;BME280;27399;51.516;13.670;2023-06-22T08:32:27;100763.91;;;28.97;67.94
41712;BME280;27399;51.516;13.670;2023-06-22T08:34:57;100764.03;;;29.07;68.97
41712;BME280;27399;51.516;13.670;2023-06-22T08:37:23;100761.53;;;29.04;66.17
41712;BME280;27399;51.516;13.670;2023-06-22T08:39:50;100760.53;;;29.05;67.20
41712;BME280;27399;51.516;13.670;2023-06-22T08:42:16;100758.63;;;29.28;66.15
41712;BME280;27399;51.516;13.670;2023-06-22T08:44:41;100762.78;;;29.34;67.20
41712;BME280;27399;51.516;13.670;2023-06-22T08:47:07;100760.63;;;29.26;66.51
41712;BME280;27399;51.516;13.670;2023-06-22T08:49:33;100762.53;;;29.37;68.98
41712;BME280;27399;51.516;13.670;2023-06-22T08:51:58;100764.28;;;29.27;65.67
41712;BME280;27399;51.516;13.670;2023-06-22T08:54:24;100761.00;;;29.56;67.46
41712;BME280;27399;51.516;13.670;2023-06-22T08:56:50;100760.03;;;29.45;66.87
41712;BME280;27399;51.516;13.670;2023-06-22T08:59:15;100757.25;;;29.57;65.45
41712;BME280;27399;51.516;13.670;2023-06-22T09:01:41;100752.47;;;29.70;67.09
41712;BME280;27399;51.516;13.670;2023-06-22T09:04:11;100742.44;;;29.80;66.46
41712;BME280;27399;51.516;13.670;2023-06-22T09:06:37;100744.28;;;29.59;65.29
41712;BME280;27399;51.516;13.670;2023-06-22T09:09:10;100734.53;;;29.55;64.77
41712;BME280;27399;51.516;13.670;2023-06-22T09:11:35;100742.94;;;29.74;65.46
41712;BME280;27399;51.516;13.670;2023-06-22T09:14:01;100749.50;;;29.62;63.94
41712;BME280;27399;51.516;13.670;2023-06-22T09:16:27;100733.00;;;29.73;64.44
41712;BME280;27399;51.516;13.670;2023-06-22T09:18:52;100751.69;;;29.79;65.78
41712;BME280;27399;51.516;13.670;2023-06-22T09:21:18;100749.91;;;29.90;63.01
41712;BME280;27399;51.516;13.670;2023-06-22T09:23:44;100754.38;;;29.58;63.81
41712;BME280;27399;51.516;13.670;2023-06-22T09:26:12;100743.25;;;29.71;64.87
41712;BME280;27399;51.516;13.670;2023-06-22T09:28:38;100734.19;;;29.80;63.71
41712;BME280;27399;51.516;13.670;2023-06-22T09:31:03;100736.75;;;30.05;64.94
41712;BME280;27399;51.516;13.670;2023-06-22T09:33:29;100741.03;;;30.19;63.66
41712;BME280;27399;51.516;13.670;2023-06-22T09:35:55;100713.50;;;30.09;63.37
41712;BME280;27399;51.516;13.670;2023-06-22T09:38:21;100723.25;;;30.44;64.77
41712;BME280;27399;51.516;13.670;2023-06-22T09:40:47;100732.00;;;30.28;62.86
41712;BME280;27399;51.516;13.670;2023-06-22T09:43:13;100732.16;;;30.48;64.07
41712;BME280;27399;51.516;13.670;2023-06-22T09:45:39;100743.22;;;30.36;63.98
41712;BME280;27399;51.516;13.670;2023-06-22T09:48:05;100734.47;;;30.31;61.04
41712;BME280;27399;51.516;13.670;2023-06-22T09:50:30;100739.06;;;30.42;62.06
41712;BME280;27399;51.516;13.670;2023-06-22T09:52:56;100742.19;;;30.37;61.62
41712;BME280;27399;51.516;13.670;2023-06-22T09:55:22;100725.91;;;30.03;62.32
41712;BME280;27399;51.516;13.670;2023-06-22T09:57:48;100726.97;;;30.33;61.97
41712;BME280;27399;51.516;13.670;2023-06-22T10:00:16;100721.00;;;30.49;64.93
41712;BME280;27399;51.516;13.670;2023-06-22T10:02:42;100716.00;;;30.43;61.84
41712;BME280;27399;51.516;13.670;2023-06-22T10:05:08;100715.03;;;30.23;61.09
41712;BME280;27399;51.516;13.670;2023-06-22T10:07:34;100718.13;;;30.82;63.17
41712;BME280;27399;51.516;13.670;2023-06-22T10:09:59;100716.94;;;31.05;62.78
41712;BME280;27399;51.516;13.670;2023-06-22T10:12:28;100722.22;;;31.18;62.07
41712;BME280;27399;51.516;13.670;2023-06-22T10:14:53;100720.34;;;31.19;62.54
41712;BME280;27399;51.516;13.670;2023-06-22T10:17:19;100715.47;;;31.42;60.35
41712;BME280;27399;51.516;13.670;2023-06-22T10:19:45;100702.28;;;31.46;60.38
41712;BME280;27399;51.516;13.670;2023-06-22T10:22:10;100704.56;;;31.31;58.40
41712;BME280;27399;51.516;13.670;2023-06-22T10:24:36;100695.13;;;31.33;58.38
41712;BME280;27399;51.516;13.670;2023-06-22T10:27:03;100695.13;;;31.33;59.83
41712;BME280;27399;51.516;13.670;2023-06-22T10:29:29;100690.31;;;31.16;60.07
41712;BME280;27399;51.516;13.670;2023-06-22T10:31:55;100686.03;;;31.43;59.76
41712;BME280;27399;51.516;13.670;2023-06-22T10:34:20;100682.34;;;31.13;58.62
41712;BME280;27399;51.516;13.670;2023-06-22T10:36:46;100692.72;;;30.99;58.71
41712;BME280;27399;51.516;13.670;2023-06-22T10:39:14;100683.41;;;31.31;58.79
41712;BME280;27399;51.516;13.670;2023-06-22T10:41:40;100679.22;;;31.37;59.74
41712;BME280;27399;51.516;13.670;2023-06-22T10:44:06;100673.28;;;31.61;58.05
41712;BME280;27399;51.516;13.670;2023-06-22T10:46:31;100684.56;;;31.48;56.71
41712;BME280;27399;51.516;13.670;2023-06-22T10:48:57;100679.97;;;31.59;58.91
41712;BME280;27399;51.516;13.670;2023-06-22T10:51:24;100672.25;;;31.52;58.27
41712;BME280;27399;51.516;13.670;2023-06-22T10:53:51;100670.38;;;31.43;58.72
41712;BME280;27399;51.516;13.670;2023-06-22T10:56:17;100660.56;;;31.10;57.88
41712;BME280;27399;51.516;13.670;2023-06-22T10:58:44;100666.00;;;31.31;60.80
41712;BME280;27399;51.516;13.670;2023-06-22T11:01:10;100657.00;;;31.48;59.18
41712;BME280;27399;51.516;13.670;2023-06-22T11:03:36;100656.44;;;31.64;60.52
41712;BME280;27399;51.516;13.670;2023-06-22T11:06:02;100643.09;;;31.60;58.34
41712;BME280;27399;51.516;13.670;2023-06-22T11:08:27;100638.75;;;31.57;57.00
41712;BME280;27399;51.516;13.670;2023-06-22T11:10:53;100643.84;;;31.91;59.30
41712;BME280;27399;51.516;13.670;2023-06-22T11:13:19;100637.34;;;31.73;58.37
41712;BME280;27399;51.516;13.670;2023-06-22T11:15:44;100641.41;;;31.68;58.50
41712;BME280;27399;51.516;13.670;2023-06-22T11:18:10;100638.88;;;31.65;59.00
41712;BME280;27399;51.516;13.670;2023-06-22T11:20:36;100638.34;;;31.72;58.79
41712;BME280;27399;51.516;13.670;2023-06-22T11:23:07;100642.25;;;31.79;55.85
41712;BME280;27399;51.516;13.670;2023-06-22T11:25:33;100637.75;;;31.78;56.83
41712;BME280;27399;51.516;13.670;2023-06-22T11:28:03;100630.91;;;31.92;55.82
41712;BME280;27399;51.516;13.670;2023-06-22T11:30:30;100644.44;;;31.85;55.71
41712;BME280;27399;51.516;13.670;2023-06-22T11:32:59;100631.75;;;32.12;55.74
41712;BME280;27399;51.516;13.670;2023-06-22T11:35:25;100629.63;;;31.96;54.76
41712;BME280;27399;51.516;13.670;2023-06-22T11:37:51;100625.41;;;31.92;55.49
41712;BME280;27399;51.516;13.670;2023-06-22T11:40:17;100617.94;;;32.32;56.04
41712;BME280;27399;51.516;13.670;2023-06-22T11:42:43;100617.22;;;32.29;57.41
41712;BME280;27399;51.516;13.670;2023-06-22T11:45:09;100623.09;;;32.54;56.28
41712;BME280;27399;51.516;13.670;2023-06-22T11:47:35;100625.78;;;32.17;55.73
41712;BME280;27399;51.516;13.670;2023-06-22T11:50:03;100621.34;;;31.96;54.96
41712;BME280;27399;51.516;13.670;2023-06-22T11:52:29;100607.06;;;32.20;55.53
41712;BME280;27399;51.516;13.670;2023-06-22T11:54:55;100616.00;;;32.42;56.06
41712;BME280;27399;51.516;13.670;2023-06-22T11:57:21;100607.53;;;32.53;56.13
41712;BME280;27399;51.516;13.670;2023-06-22T11:59:46;100608.19;;;32.65;55.51
41712;BME280;27399;51.516;13.670;2023-06-22T12:02:12;100598.59;;;32.69;55.59
41712;BME280;27399;51.516;13.670;2023-06-22T12:04:37;100595.50;;;32.82;54.65
41712;BME280;27399;51.516;13.670;2023-06-22T12:07:03;100597.97;;;32.85;54.03
41712;BME280;27399;51.516;13.670;2023-06-22T12:09:29;100596.53;;;32.81;55.38
41712;BME280;27399;51.516;13.670;2023-06-22T12:11:55;100587.75;;;32.58;54.54
41712;BME280;27399;51.516;13.670;2023-06-22T12:14:21;100593.16;;;32.78;52.83
41712;BME280;27399;51.516;13.670;2023-06-22T12:16:47;100581.47;;;32.94;53.02
41712;BME280;27399;51.516;13.670;2023-06-22T12:19:13;100580.22;;;33.06;53.42
41712;BME280;27399;51.516;13.670;2023-06-22T12:21:38;100579.25;;;32.97;55.13
41712;BME280;27399;51.516;13.670;2023-06-22T12:24:06;100582.66;;;32.91;53.91
41712;BME280;27399;51.516;13.670;2023-06-22T12:26:31;100570.81;;;32.81;53.17
41712;BME280;27399;51.516;13.670;2023-06-22T12:28:57;100573.19;;;32.94;53.78
41712;BME280;27399;51.516;13.670;2023-06-22T12:31:23;100568.38;;;32.96;53.86
41712;BME280;27399;51.516;13.670;2023-06-22T12:33:48;100566.59;;;33.04;53.99
41712;BME280;27399;51.516;13.670;2023-06-22T12:36:14;100568.44;;;32.58;53.48
41712;BME280;27399;51.516;13.670;2023-06-22T12:38:41;100567.03;;;32.72;54.90
41712;BME280;27399;51.516;13.670;2023-06-22T12:41:07;100560.38;;;32.74;55.24
41712;BME280;27399;51.516;13.670;2023-06-22T12:43:33;100561.03;;;32.58;53.35
41712;BME280;27399;51.516;13.670;2023-06-22T12:45:58;100548.56;;;32.54;53.78
41712;BME280;27399;51.516;13.670;2023-06-22T12:48:26;100561.44;;;32.64;55.55